Time;durP1;ratioP1;P1;durP2;ratioP2;P2;SDS_P1;SDS_P2;PMS_P1;PMS_P2;Temp;Humidity;BMP_temperature;BMP_pressure;BME280_temperature;BME280_humidity;BME280_pressure;Samples;Min_cycle;Max_cycle;Signal;HPM_P1;HPM_P2
2022/06/16 00:01:53;;;;;;;4.60;3.70;;;;;;;19.39;53.40;98048.41;5033810;28;20658;-68
2022/06/16 00:04:20;;;;;;;4.90;3.60;;;;;;;19.35;53.90;98050.88;5033776;28;20268;-68
2022/06/16 00:06:46;;;;;;;4.23;3.37;;;;;;;19.40;54.54;98048.16;5034033;28;20267;-68
2022/06/16 00:09:13;;;;;;;4.73;3.90;;;;;;;19.37;53.64;98035.22;5033585;28;20230;-68
2022/06/16 00:11:39;;;;;;;5.77;3.40;;;;;;;19.42;53.35;98042.47;5033836;28;20253;-68
2022/06/16 00:14:06;;;;;;;3.83;3.37;;;;;;;19.44;52.27;98048.41;5033942;28;20205;-69
2022/06/16 00:16:32;;;;;;;3.67;3.33;;;;;;;19.40;52.33;98048.16;5033882;28;20209;-68
2022/06/16 00:18:59;;;;;;;3.77;3.37;;;;;;;19.48;52.58;98051.38;5033778;28;20562;-68
2022/06/16 00:21:26;;;;;;;3.70;3.40;;;;;;;19.41;51.50;98047.06;5033470;28;20206;-68
2022/06/16 00:23:52;;;;;;;4.30;3.50;;;;;;;19.41;51.85;98052.44;5033764;28;20210;-68
2022/06/16 00:26:24;;;;;;;3.97;3.40;;;;;;;19.41;51.90;98046.28;5032917;28;20206;-68
2022/06/16 00:28:52;;;;;;;4.97;3.80;;;;;;;19.35;51.49;98053.56;5033286;28;20257;-68
2022/06/16 00:31:22;;;;;;;4.20;3.20;;;;;;;19.34;52.64;98045.75;5033564;28;20243;-68
2022/06/16 00:33:49;;;;;;;5.73;3.43;;;;;;;19.28;52.37;98036.06;5033660;28;20190;-67
2022/06/16 00:36:16;;;;;;;3.60;3.30;;;;;;;19.28;53.28;98039.56;5033623;28;20209;-68
2022/06/16 00:38:43;;;;;;;3.97;3.40;;;;;;;19.28;52.53;98039.56;5033503;28;20225;-68
2022/06/16 00:41:10;;;;;;;3.80;3.40;;;;;;;19.31;51.43;98044.41;5033283;28;20210;-68
2022/06/16 00:43:36;;;;;;;4.83;3.17;;;;;;;19.31;50.99;98046.28;5033230;28;20301;-68
2022/06/16 00:46:10;;;;;;;4.10;3.30;;;;;;;19.25;51.38;98040.13;5033481;28;20244;-68
2022/06/16 00:48:48;;;;;;;4.20;3.60;;;;;;;19.27;52.36;98040.63;5033967;28;20233;-68
2022/06/16 00:51:28;;;;;;;4.17;3.17;;;;;;;19.26;52.54;98036.34;5033691;28;20232;-67
2022/06/16 00:54:00;;;;;;;4.87;3.40;;;;;;;19.17;52.48;98035.25;5033162;28;20220;-68
2022/06/16 00:56:26;;;;;;;4.53;3.13;;;;;;;19.15;53.20;98036.59;5015841;28;20196;-68
2022/06/16 00:59:01;;;;;;;3.70;3.40;;;;;;;19.11;53.16;98041.75;5033313;28;20259;-68
2022/06/16 01:01:28;;;;;;;4.77;3.20;;;;;;;19.15;54.07;98037.44;5033878;28;20281;-68
2022/06/16 01:06:41;;;;;;;3.27;2.97;;;;;;;19.17;53.02;98029.88;5033372;28;20177;-68
2022/06/16 01:09:18;;;;;;;4.97;3.57;;;;;;;18.98;52.47;98030.72;5032841;28;20280;-68
2022/06/16 01:15:05;;;;;;;3.93;3.00;;;;;;;18.97;53.85;98034.50;5033084;28;20695;-68
2022/06/16 01:18:14;;;;;;;4.07;3.67;;;;;;;18.97;54.93;98029.94;5016628;28;20257;-68
2022/06/16 01:20:44;;;;;;;4.77;3.70;;;;;;;18.97;56.41;98035.31;5019579;28;20192;-68
2022/06/16 01:23:33;;;;;;;5.67;3.80;;;;;;;18.98;58.09;98034.22;5015698;28;20198;-68
2022/06/16 01:26:33;;;;;;;5.37;4.30;;;;;;;19.01;59.01;98036.34;5033120;28;20202;-68
2022/06/16 01:29:12;;;;;;;5.20;4.70;;;;;;;19.03;59.92;98033.41;5032747;28;20225;-68
2022/06/16 01:31:53;;;;;;;5.23;3.87;;;;;;;18.95;61.13;98034.75;5033000;28;20280;-68
2022/06/16 01:34:23;;;;;;;4.80;4.20;;;;;;;18.95;61.65;98026.69;5032840;28;20703;-68
2022/06/16 01:37:08;;;;;;;6.07;4.27;;;;;;;18.94;62.61;98032.34;5033104;28;20210;-68
2022/06/16 01:39:44;;;;;;;5.37;4.70;;;;;;;18.94;63.62;98027.78;5036767;28;20225;-68
2022/06/16 01:42:17;;;;;;;5.47;4.37;;;;;;;18.93;64.72;98025.34;5036749;28;20189;-68
2022/06/16 01:44:55;;;;;;;6.90;4.30;;;;;;;18.90;65.38;98020.50;5036722;28;20190;-68
2022/06/16 01:47:23;;;;;;;7.50;4.90;;;;;;;18.87;65.88;98019.16;5036388;28;20190;-68
2022/06/16 01:49:55;;;;;;;9.80;5.00;;;;;;;18.85;66.81;98021.31;5036079;28;20330;-69
2022/06/16 01:52:27;;;;;;;5.27;4.77;;;;;;;18.84;67.19;98011.63;5036368;28;20206;-68
2022/06/16 01:55:00;;;;;;;6.00;4.83;;;;;;;18.82;67.71;98011.06;5036214;28;20213;-68
2022/06/16 01:57:41;;;;;;;5.87;4.57;;;;;;;18.82;68.04;98007.59;5019370;28;20256;-68
2022/06/16 02:00:14;;;;;;;7.33;5.70;;;;;;;18.76;67.95;98009.47;5036354;28;20276;-67
2022/06/16 02:02:43;;;;;;;5.77;4.80;;;;;;;18.74;68.77;98014.31;5036300;28;20202;-68
2022/06/16 02:05:24;;;;;;;6.37;4.53;;;;;;;18.86;67.00;98006.75;5019531;28;20295;-68
2022/06/16 02:08:05;;;;;;;4.97;4.57;;;;;;;18.72;68.40;98013.78;5036311;28;20226;-68
2022/06/16 02:10:36;;;;;;;5.60;4.50;;;;;;;18.66;68.83;97997.91;5035818;28;20229;-68
2022/06/16 02:13:05;;;;;;;7.97;5.30;;;;;;;18.59;69.26;97995.50;5036065;28;20276;-68
2022/06/16 02:15:44;;;;;;;5.90;5.00;;;;;;;18.55;69.81;97994.41;5035649;28;20256;-68
2022/06/16 02:18:13;;;;;;;5.83;4.93;;;;;;;18.49;69.86;97995.50;5035727;28;20226;-68
2022/06/16 02:21:14;;;;;;;6.30;4.80;;;;;;;18.50;70.11;97997.13;5018240;28;20264;-68
2022/06/16 02:23:44;;;;;;;6.67;4.83;;;;;;;18.41;70.79;97998.75;5016410;28;20263;-68
2022/06/16 02:26:11;;;;;;;6.70;5.10;;;;;;;18.32;71.85;97996.84;5035879;28;20289;-68
2022/06/16 02:28:47;;;;;;;6.97;5.23;;;;;;;18.28;71.44;97998.47;5035505;28;20721;-68
2022/06/16 02:31:28;;;;;;;7.80;5.03;;;;;;;18.21;71.93;97987.97;5035508;28;20214;-68
2022/06/16 02:34:15;;;;;;;5.60;5.00;;;;;;;18.18;72.09;97988.47;5035643;28;20204;-67
2022/06/16 02:36:53;;;;;;;7.07;4.90;;;;;;;18.25;71.70;97988.22;5018214;28;20205;-68
2022/06/16 02:39:28;;;;;;;6.57;4.97;;;;;;;18.20;72.06;97990.91;5035337;28;20257;-68
2022/06/16 02:42:09;;;;;;;5.53;4.70;;;;;;;18.24;71.98;97987.41;5035339;28;20193;-68
2022/06/16 02:45:00;;;;;;;7.23;5.03;;;;;;;18.19;71.67;97982.03;5035574;28;20244;-68
2022/06/16 02:47:47;;;;;;;6.30;4.50;;;;;;;18.20;70.97;97986.34;5035192;28;20711;-69
2022/06/16 02:50:29;;;;;;;5.23;4.50;;;;;;;18.20;71.64;97978.28;5034972;28;20217;-68
2022/06/16 02:53:11;;;;;;;5.67;4.67;;;;;;;18.24;70.56;97978.53;5017998;28;20214;-68
2022/06/16 02:55:49;;;;;;;6.23;4.50;;;;;;;18.27;69.47;97970.72;5035349;28;20198;-68
2022/06/16 02:58:18;;;;;;;8.27;4.87;;;;;;;18.22;69.79;97968.03;5035294;28;20230;-68
2022/06/16 03:00:53;;;;;;;5.73;4.60;;;;;;;18.19;70.18;97971.25;5034935;28;20645;-68
2022/06/16 03:03:19;;;;;;;7.77;4.97;;;;;;;18.17;70.06;97984.19;5035114;28;20189;-68
2022/06/16 03:05:46;;;;;;;4.73;4.33;;;;;;;18.12;69.86;97994.94;5034781;28;20768;-68
2022/06/16 03:08:12;;;;;;;5.63;4.43;;;;;;;18.05;70.38;97983.63;5034943;28;20312;-68
2022/06/16 03:10:54;;;;;;;5.23;4.73;;;;;;;18.04;70.59;97979.34;5034720;28;20639;-68
2022/06/16 03:13:26;;;;;;;4.60;4.20;;;;;;;17.95;70.18;97978.25;5034668;28;20675;-68
2022/06/16 03:15:55;;;;;;;5.63;4.50;;;;;;;18.00;69.85;97975.56;5035011;28;20377;-68
2022/06/16 03:18:22;;;;;;;5.33;4.50;;;;;;;17.95;70.27;97974.75;5034514;28;20269;-68
2022/06/16 03:20:50;;;;;;;5.87;4.80;;;;;;;17.99;69.92;97975.81;5034444;28;20736;-68
2022/06/16 03:23:18;;;;;;;5.63;4.87;;;;;;;18.01;70.01;97976.38;5034394;28;20208;-68
2022/06/16 03:25:45;;;;;;;5.33;4.50;;;;;;;17.93;70.63;97968.84;5034813;28;20210;-68
2022/06/16 03:28:13;;;;;;;5.30;4.23;;;;;;;17.91;70.87;97987.91;5034658;28;20252;-68
2022/06/16 03:30:41;;;;;;;4.97;4.57;;;;;;;17.84;71.44;97982.00;5034634;28;20302;-68
2022/06/16 03:33:09;;;;;;;5.73;4.10;;;;;;;17.88;71.55;97983.09;5034333;28;20229;-68
2022/06/16 03:35:36;;;;;;;6.77;4.30;;;;;;;17.90;70.99;97985.50;5034207;28;20210;-68
2022/06/16 03:38:03;;;;;;;5.63;4.47;;;;;;;17.83;72.01;97990.34;5034384;28;20565;-68
2022/06/16 03:40:30;;;;;;;4.90;4.33;;;;;;;17.85;70.95;97991.69;5034083;28;20741;-68
2022/06/16 03:42:57;;;;;;;5.40;4.40;;;;;;;17.87;71.34;97996.81;5034048;28;20288;-68
2022/06/16 03:45:24;;;;;;;6.90;4.67;;;;;;;17.84;70.94;97998.16;5033807;28;20593;-68
2022/06/16 03:47:50;;;;;;;6.03;4.53;;;;;;;17.82;71.28;97997.59;5033938;28;20316;-68
2022/06/16 03:50:19;;;;;;;6.17;4.23;;;;;;;17.83;70.59;98007.25;5033734;28;20213;-67
2022/06/16 03:52:45;;;;;;;5.00;4.20;;;;;;;17.90;69.28;97998.94;5033755;28;20236;-68
2022/06/16 03:55:12;;;;;;;4.30;3.90;;;;;;;17.87;70.00;98002.97;5034057;28;20216;-68
2022/06/16 03:57:38;;;;;;;5.80;4.40;;;;;;;17.86;70.69;98011.31;5034068;28;20267;-68
2022/06/16 04:00:07;;;;;;;4.50;4.10;;;;;;;17.87;70.59;98013.72;5033990;28;20206;-68
2022/06/16 04:02:33;;;;;;;4.73;4.13;;;;;;;17.86;70.85;98014.81;5033999;28;20293;-68
2022/06/16 04:05:00;;;;;;;4.23;3.90;;;;;;;18.03;70.74;98028.03;5034074;28;20308;-68
2022/06/16 04:07:28;;;;;;;4.90;4.13;;;;;;;18.20;69.98;98028.59;5033531;28;20212;-69
2022/06/16 04:09:54;;;;;;;5.53;4.20;;;;;;;18.28;69.66;98030.75;5033778;28;20210;-68
2022/06/16 04:12:20;;;;;;;5.77;4.10;;;;;;;18.36;69.18;98039.13;5033360;28;20679;-68
2022/06/16 04:14:47;;;;;;;6.03;3.97;;;;;;;18.42;69.13;98040.72;5033513;28;20292;-67
2022/06/16 04:17:13;;;;;;;5.93;4.37;;;;;;;18.60;68.18;98040.19;5033449;28;20645;-68
2022/06/16 04:20:11;;;;;;;5.57;3.80;;;;;;;18.48;67.67;98042.38;5033709;28;20226;-67
2022/06/16 04:22:28;;;;;;;9.70;4.20;;;;;;;18.44;66.41;98041.28;5033216;28;20365;-68
2022/06/16 04:24:54;;;;;;;4.30;3.90;;;;;;;18.51;67.36;98043.72;5033432;28;20723;-68
2022/06/16 04:27:21;;;;;;;4.23;3.90;;;;;;;18.57;67.02;98040.75;5033426;28;20680;-68
2022/06/16 04:29:47;;;;;;;6.80;3.80;;;;;;;18.62;65.67;98042.63;5033646;28;20317;-68
2022/06/16 04:32:14;;;;;;;4.03;3.60;;;;;;;18.73;64.64;98050.41;5033697;28;20230;-68
2022/06/16 04:34:42;;;;;;;4.17;3.80;;;;;;;18.76;64.88;98055.28;5033639;28;20572;-68
2022/06/16 04:37:09;;;;;;;5.40;3.97;;;;;;;18.78;65.53;98055.00;5033224;28;20217;-68
2022/06/16 04:39:35;;;;;;;5.87;4.40;;;;;;;18.92;64.42;98048.78;5033295;28;20222;-68
2022/06/16 04:42:02;;;;;;;4.43;3.90;;;;;;;18.92;64.92;98053.38;5033068;28;20217;-67
2022/06/16 04:44:28;;;;;;;7.80;4.30;;;;;;;18.85;65.16;98060.91;5033348;28;20205;-68
2022/06/16 04:46:55;;;;;;;4.43;3.87;;;;;;;18.89;66.10;98064.69;5033257;28;20293;-68
2022/06/16 04:49:21;;;;;;;5.73;4.33;;;;;;;18.90;65.31;98064.41;5032789;28;20689;-68
2022/06/16 04:51:47;;;;;;;4.03;3.73;;;;;;;19.03;64.58;98066.53;5032947;28;20316;-68
2022/06/16 04:54:14;;;;;;;4.33;3.73;;;;;;;19.14;64.39;98065.44;5033450;28;20288;-69
2022/06/16 04:56:40;;;;;;;5.07;3.70;;;;;;;19.19;63.77;98067.31;5033449;28;20205;-68
2022/06/16 04:59:07;;;;;;;6.20;4.00;;;;;;;19.17;62.85;98069.47;5033099;28;20736;-68
2022/06/16 05:01:34;;;;;;;4.03;3.70;;;;;;;19.31;62.91;98070.53;5033023;28;20668;-68
2022/06/16 05:04:00;;;;;;;6.60;4.30;;;;;;;19.22;63.86;98070.31;5033349;28;20313;-68
2022/06/16 05:06:26;;;;;;;4.50;3.90;;;;;;;19.24;64.17;98081.63;5032889;28;20292;-68
2022/06/16 05:08:53;;;;;;;5.13;4.13;;;;;;;19.42;63.11;98080.22;5033126;28;20232;-68
2022/06/16 05:11:19;;;;;;;5.67;4.13;;;;;;;19.41;63.17;98068.63;5032864;28;20701;-68
2022/06/16 05:13:46;;;;;;;6.23;4.10;;;;;;;19.45;63.45;98075.09;5036346;28;20637;-68
2022/06/16 05:16:12;;;;;;;5.40;3.53;;;;;;;19.86;61.92;98078.44;5037143;28;20208;-68
2022/06/16 05:18:38;;;;;;;5.80;3.90;;;;;;;20.14;58.95;98076.94;5036621;28;20228;-68
2022/06/16 05:21:07;;;;;;;4.57;4.10;;;;;;;20.70;58.86;98078.97;5036850;28;20210;-68
2022/06/16 05:23:34;;;;;;;3.90;3.50;;;;;;;21.16;57.64;98080.19;5036453;28;20288;-68
2022/06/16 05:26:01;;;;;;;5.23;3.97;;;;;;;21.42;55.94;98078.03;5037005;28;20573;-68
2022/06/16 05:28:28;;;;;;;4.27;3.70;;;;;;;22.05;54.41;98082.16;5036533;28;20229;-68
2022/06/16 05:30:54;;;;;;;7.17;4.03;;;;;;;21.42;55.77;98084.25;5036971;28;20240;-68
2022/06/16 05:33:21;;;;;;;5.10;4.03;;;;;;;21.31;55.92;98092.78;5036483;28;20735;-68
2022/06/16 05:36:05;;;;;;;4.90;3.90;;;;;;;21.34;55.68;98098.41;5036481;28;20286;-68
2022/06/16 05:38:32;;;;;;;4.50;3.73;;;;;;;21.23;55.84;98098.78;5036732;28;20234;-68
2022/06/16 05:41:01;;;;;;;4.00;3.60;;;;;;;20.70;57.41;98100.59;5036386;28;20216;-68
2022/06/16 05:43:27;;;;;;;5.87;3.77;;;;;;;20.69;58.57;98096.28;5036281;28;20198;-68
2022/06/16 05:45:54;;;;;;;4.07;3.60;;;;;;;20.63;58.28;98097.41;5036403;28;20202;-68
2022/06/16 05:48:21;;;;;;;5.10;3.70;;;;;;;20.81;58.21;98098.63;5036063;28;20222;-68
2022/06/16 05:50:48;;;;;;;4.37;3.53;;;;;;;20.60;59.89;98107.97;5036594;28;20281;-68
2022/06/16 05:53:14;;;;;;;4.90;4.10;;;;;;;20.51;59.28;98115.03;5036334;28;20229;-68
2022/06/16 05:55:41;;;;;;;4.23;3.77;;;;;;;20.41;58.80;98117.81;5036458;28;20228;-68
2022/06/16 05:58:07;;;;;;;6.30;3.90;;;;;;;20.46;57.94;98118.59;5036411;28;20319;-68
2022/06/16 06:00:33;;;;;;;3.60;3.30;;;;;;;20.52;57.38;98116.69;5036442;28;20202;-68
2022/06/16 06:03:01;;;;;;;4.27;3.67;;;;;;;20.51;57.30;98113.16;5036380;28;20297;-68
2022/06/16 06:05:29;;;;;;;4.30;3.63;;;;;;;20.65;57.11;98118.72;5036334;28;20210;-68
2022/06/16 06:16:28;;;;;;;8.43;3.57;;;;;;;20.78;56.25;98121.59;5035903;28;20251;-68
2022/06/16 06:18:56;;;;;;;6.03;3.70;;;;;;;20.61;56.59;98115.00;5036055;28;20230;-68
2022/06/16 06:24:05;;;;;;;4.57;3.47;;;;;;;21.23;55.25;98118.53;5033308;28;20296;-68
2022/06/16 06:26:31;;;;;;;7.97;3.60;;;;;;;21.20;55.83;98113.69;5035899;28;20305;-67
2022/06/16 06:28:58;;;;;;;5.63;3.73;;;;;;;21.31;54.77;98115.22;5035513;28;20631;-68
2022/06/16 06:31:24;;;;;;;3.50;3.20;;;;;;;21.36;54.66;98119.75;5035826;28;20206;-68
2022/06/16 06:33:51;;;;;;;4.03;3.27;;;;;;;21.50;54.42;98112.56;5035741;28;20230;-68
2022/06/16 06:36:17;;;;;;;4.53;3.40;;;;;;;21.67;54.04;98119.16;5035631;28;20209;-68
2022/06/16 06:38:43;;;;;;;3.90;3.40;;;;;;;21.70;52.50;98118.59;5035256;28;20229;-68
2022/06/16 06:41:10;;;;;;;5.73;3.30;;;;;;;21.94;51.44;98127.53;5035563;28;20224;-68
2022/06/16 06:43:36;;;;;;;5.27;3.23;;;;;;;22.26;52.34;98118.69;5035279;28;20293;-68
2022/06/16 06:46:03;;;;;;;3.43;3.13;;;;;;;22.49;52.27;98129.50;5035456;28;20292;-69
2022/06/16 06:48:29;;;;;;;4.73;3.40;;;;;;;22.34;50.22;98128.88;5035496;28;20242;-68
2022/06/16 06:50:55;;;;;;;3.88;3.38;;;;;;;22.61;50.19;98137.19;5035366;28;20296;-69
2022/06/16 06:53:22;;;;;;;3.93;3.27;;;;;;;22.33;50.36;98136.19;5034920;28;20776;-69
2022/06/16 06:55:49;;;;;;;4.47;3.28;;;;;;;22.63;49.95;98129.56;5035321;28;20302;-68
2022/06/16 06:58:23;;;;;;;3.65;3.00;;;;;;;22.70;49.86;98130.00;5035286;28;20232;-68
2022/06/16 07:00:53;;;;;;;3.92;3.53;;;;;;;22.98;49.38;98134.44;5035255;28;20309;-68
2022/06/16 07:03:21;;;;;;;3.38;2.88;;;;;;;23.31;47.60;98128.72;5035206;28;20186;-68
2022/06/16 07:05:49;;;;;;;4.88;3.35;;;;;;;23.07;48.47;98127.22;5035070;28;20205;-69
2022/06/16 07:08:16;;;;;;;5.72;2.80;;;;;;;22.87;49.15;98132.97;5034975;28;20226;-69
2022/06/16 07:10:43;;;;;;;4.65;3.13;;;;;;;22.88;49.78;98140.03;5034691;28;20209;-69
2022/06/16 07:13:09;;;;;;;4.72;3.47;;;;;;;23.09;47.04;98152.13;5034783;28;20587;-69
2022/06/16 07:15:37;;;;;;;3.30;3.00;;;;;;;23.35;46.84;98156.06;5034504;28;20297;-69
2022/06/16 07:18:06;;;;;;;3.60;3.30;;;;;;;23.60;45.18;98159.09;5034354;28;20728;-69
2022/06/16 07:20:33;;;;;;;3.08;2.88;;;;;;;23.90;45.54;98157.75;5034310;28;20618;-68
2022/06/16 07:23:01;;;;;;;5.18;3.20;;;;;;;23.80;45.66;98158.75;5034677;28;20245;-68
2022/06/16 07:25:28;;;;;;;4.93;3.55;;;;;;;23.47;46.05;98165.31;5034718;28;20300;-68
2022/06/16 07:27:56;;;;;;;3.58;3.25;;;;;;;23.65;46.83;98166.38;5034308;28;20317;-68
2022/06/16 07:30:23;;;;;;;4.55;3.20;;;;;;;23.64;47.95;98178.31;5034339;28;20241;-69
2022/06/16 07:32:51;;;;;;;3.55;2.97;;;;;;;23.76;48.25;98178.63;5034426;28;20316;-69
2022/06/16 07:35:21;;;;;;;4.80;2.88;;;;;;;23.91;48.27;98175.66;5033588;28;20292;-68
2022/06/16 07:37:49;;;;;;;3.35;3.03;;;;;;;23.45;49.37;98174.88;5034344;28;20328;-69
2022/06/16 07:40:17;;;;;;;6.95;3.30;;;;;;;23.44;48.66;98176.78;5034133;28;20296;-68
2022/06/16 07:42:44;;;;;;;6.22;3.25;;;;;;;23.45;47.63;98185.72;5033995;28;20296;-68
2022/06/16 07:45:12;;;;;;;5.00;2.95;;;;;;;23.70;48.45;98190.69;5034269;28;20214;-69
2022/06/16 07:47:39;;;;;;;5.32;3.28;;;;;;;23.71;48.32;98197.75;5034071;28;20212;-68
2022/06/16 07:50:08;;;;;;;3.88;3.25;;;;;;;23.72;49.24;98192.00;5033732;28;20296;-68
2022/06/16 07:52:35;;;;;;;3.92;3.42;;;;;;;23.63;49.22;98195.72;5034165;28;20225;-68
2022/06/16 07:55:02;;;;;;;4.70;3.67;;;;;;;23.77;48.61;98197.34;5033892;28;20687;-68
2022/06/16 07:57:31;;;;;;;5.05;3.13;;;;;;;24.03;48.95;98200.41;5033624;28;20216;-69
2022/06/16 07:59:59;;;;;;;3.65;3.35;;;;;;;24.23;47.96;98197.28;5033660;28;20684;-69
2022/06/16 08:02:27;;;;;;;6.00;3.25;;;;;;;24.23;46.40;98203.53;5033810;28;20297;-69
2022/06/16 08:04:53;;;;;;;5.07;3.15;;;;;;;24.09;46.43;98199.19;5034523;28;20209;-69
2022/06/16 08:07:20;;;;;;;4.22;3.15;;;;;;;24.19;46.55;98207.94;5033433;28;20217;-69
2022/06/16 08:09:48;;;;;;;3.35;3.08;;;;;;;24.45;46.66;98202.78;5033746;28;20226;-69
2022/06/16 08:12:16;;;;;;;4.88;2.95;;;;;;;24.09;45.71;98204.63;5034246;28;20206;-69
2022/06/16 08:14:47;;;;;;;3.75;3.40;;;;;;;24.28;46.37;98205.34;5033830;28;20260;-69
2022/06/16 08:17:18;;;;;;;5.90;3.30;;;;;;;24.55;45.71;98203.38;5034117;28;20301;-69
2022/06/16 08:19:45;;;;;;;4.07;3.20;;;;;;;24.75;45.04;98204.88;5016109;28;20229;-69
2022/06/16 08:22:12;;;;;;;5.60;3.33;;;;;;;25.22;45.04;98196.13;5033672;28;20212;-69
2022/06/16 08:24:39;;;;;;;4.20;2.92;;;;;;;25.38;43.56;98200.13;5033569;28;20216;-69
2022/06/16 08:27:07;;;;;;;3.50;3.17;;;;;;;25.34;42.51;98204.56;5033481;28;20210;-69
2022/06/16 08:29:33;;;;;;;6.32;3.45;;;;;;;25.47;41.32;98199.03;5033315;28;20236;-68
2022/06/16 08:32:00;;;;;;;5.13;3.20;;;;;;;25.12;42.31;98201.81;5015921;28;20240;-69
2022/06/16 08:34:26;;;;;;;9.68;3.20;;;;;;;24.71;41.99;98206.59;5032901;28;20648;-69
2022/06/16 08:36:53;;;;;;;4.60;3.30;;;;;;;24.56;41.38;98204.19;5033052;28;20771;-69
2022/06/16 08:39:19;;;;;;;5.30;3.13;;;;;;;24.37;41.35;98212.47;5033335;28;20317;-69
2022/06/16 08:41:50;;;;;;;6.75;3.03;;;;;;;24.61;40.17;98217.72;5033412;28;20288;-70
2022/06/16 08:44:29;;;;;;;5.65;3.67;;;;;;;24.66;40.76;98217.59;5033404;28;20277;-69
2022/06/16 08:47:05;;;;;;;4.70;3.25;;;;;;;24.49;41.80;98210.03;5032347;28;20633;-69
2022/06/16 08:49:53;;;;;;;6.10;3.30;;;;;;;24.32;41.29;98209.03;5032823;28;20933;-69
2022/06/16 08:52:28;;;;;;;6.15;2.75;;;;;;;24.38;42.31;98211.34;5033027;28;20285;-69
2022/06/16 08:54:58;;;;;;;7.85;3.03;;;;;;;24.56;41.16;98215.06;5033016;28;20703;-69
2022/06/16 08:57:34;;;;;;;4.75;3.47;;;;;;;25.20;41.50;98222.88;5032793;28;20665;-70
2022/06/16 09:00:05;;;;;;;3.88;3.08;;;;;;;25.38;40.58;98227.34;5033379;28;20288;-69
2022/06/16 09:02:45;;;;;;;3.50;3.20;;;;;;;25.33;40.06;98233.69;5032986;28;20277;-69
2022/06/16 09:05:19;;;;;;;4.15;2.80;;;;;;;25.25;40.62;98237.16;5033467;28;20231;-70
2022/06/16 09:07:50;;;;;;;3.47;3.00;;;;;;;25.41;40.92;98232.16;5032679;28;20292;-70
2022/06/16 09:10:34;;;;;;;5.20;2.92;;;;;;;25.63;40.85;98237.59;5033561;28;20202;-69
2022/06/16 09:13:43;;;;;;;4.30;3.20;;;;;;;25.62;40.32;98238.72;5032777;28;20551;-69
2022/06/16 09:16:28;;;;;;;5.50;3.40;;;;;;;25.38;41.10;98246.41;5032898;28;20672;-69
2022/06/16 09:19:14;;;;;;;7.78;3.63;;;;;;;25.65;42.08;98249.78;5032881;28;20225;-69
2022/06/16 09:22:02;;;;;;;7.80;3.63;;;;;;;25.91;41.53;98247.22;5033069;28;20281;-70
2022/06/16 09:24:41;;;;;;;6.05;3.50;;;;;;;25.81;42.75;98245.56;5033085;28;20563;-69
2022/06/16 09:27:18;;;;;;;6.63;3.60;;;;;;;26.02;41.47;98251.31;5033446;28;20296;-69
2022/06/16 09:30:04;;;;;;;4.18;3.28;;;;;;;26.00;40.81;98250.78;5015232;28;20225;-69
2022/06/16 09:32:41;;;;;;;6.40;3.40;;;;;;;26.15;41.36;98253.13;5032672;28;20548;-68
2022/06/16 09:35:15;;;;;;;5.28;3.50;;;;;;;25.63;41.76;98262.09;5033447;28;20293;-69
2022/06/16 09:38:05;;;;;;;3.97;3.25;;;;;;;25.93;42.41;98256.72;5032815;28;20277;-70
2022/06/16 09:40:38;;;;;;;4.72;3.45;;;;;;;25.98;40.72;98258.50;5015060;28;20634;-69
2022/06/16 09:43:22;;;;;;;4.40;3.70;;;;;;;25.86;41.60;98277.28;5014668;28;20210;-69
2022/06/16 09:46:02;;;;;;;3.40;3.10;;;;;;;26.21;42.86;98276.38;5015365;28;20194;-69
2022/06/16 09:48:38;;;;;;;5.18;3.35;;;;;;;25.72;42.42;98265.66;5033103;28;20234;-69
2022/06/16 09:51:29;;;;;;;4.18;3.75;;;;;;;26.18;43.54;98268.81;5032359;28;20190;-69
2022/06/16 09:54:06;;;;;;;3.72;3.42;;;;;;;26.67;41.28;98263.09;5032233;28;20214;-69
2022/06/16 09:56:44;;;;;;;4.18;3.40;;;;;;;27.17;40.30;98277.16;5032791;28;20224;-69
2022/06/16 09:59:14;;;;;;;4.68;3.30;;;;;;;27.02;40.99;98278.41;5034610;28;20308;-68
2022/06/16 10:01:54;;;;;;;4.28;3.85;;;;;;;27.26;41.06;98278.78;5036316;28;20242;-69
2022/06/16 10:04:20;;;;;;;7.03;3.20;;;;;;;27.14;41.26;98278.59;5036197;28;20186;-70
2022/06/16 10:07:01;;;;;;;3.83;3.40;;;;;;;26.77;41.30;98284.63;5035714;28;20665;-69
2022/06/16 10:10:03;;;;;;;6.13;3.55;;;;;;;26.21;42.01;98295.47;5035914;28;20225;-68
2022/06/16 10:12:50;;;;;;;11.43;3.50;;;;;;;26.06;41.42;98282.25;5012972;28;20209;-73
2022/06/16 10:15:47;;;;;;;5.32;3.70;;;;;;;26.22;42.23;98286.97;5018179;28;20228;-69
2022/06/16 10:18:13;;;;;;;3.65;3.15;;;;;;;26.80;41.83;98294.91;5017708;28;20746;-69
2022/06/16 10:20:40;;;;;;;5.07;3.25;;;;;;;26.49;41.07;98296.84;5017925;28;20206;-69
2022/06/16 10:23:30;;;;;;;3.78;2.90;;;;;;;26.78;40.26;98292.50;5035085;28;20209;-70
2022/06/16 10:26:00;;;;;;;3.72;3.03;;;;;;;26.48;41.27;98292.53;5035624;28;20268;-70
2022/06/16 10:28:45;;;;;;;3.75;3.10;;;;;;;26.85;41.14;98295.56;5035139;28;20226;-71
2022/06/16 10:31:33;;;;;;;5.28;3.20;;;;;;;26.95;40.58;98300.72;5036255;28;20277;-69
2022/06/16 10:34:01;;;;;;;5.25;3.47;;;;;;;27.06;40.21;98301.22;5035182;28;20210;-69
2022/06/16 10:36:28;;;;;;;5.75;3.17;;;;;;;26.87;40.79;98323.31;5034833;28;20206;-70
2022/06/16 10:39:18;;;;;;;4.40;3.10;;;;;;;26.55;40.75;98314.72;5035066;28;20389;-70
2022/06/16 10:41:55;;;;;;;10.32;3.83;;;;;;;26.39;40.71;98327.97;5035210;28;20190;-70
2022/06/16 10:44:25;;;;;;;5.38;3.10;;;;;;;26.39;40.87;98318.97;5017444;28;20543;-70
2022/06/16 10:46:57;;;;;;;8.32;3.08;;;;;;;26.47;40.74;98321.72;5018033;28;20286;-70
2022/06/16 10:49:29;;;;;;;8.75;3.10;;;;;;;26.40;40.70;98324.09;5035262;28;20249;-70
2022/06/16 10:52:02;;;;;;;5.05;2.88;;;;;;;27.01;40.06;98328.66;5035343;28;20593;-70
2022/06/16 10:54:34;;;;;;;4.20;3.05;;;;;;;27.06;40.34;98336.69;5035199;28;20220;-70
2022/06/16 10:57:13;;;;;;;4.55;2.97;;;;;;;26.96;40.58;98337.00;5034766;28;20643;-70
2022/06/16 10:59:46;;;;;;;3.88;3.50;;;;;;;27.39;40.47;98340.63;5035097;28;20222;-70
2022/06/16 11:02:22;;;;;;;5.13;2.97;;;;;;;26.96;39.78;98342.47;5035199;28;20273;-69
2022/06/16 11:05:02;;;;;;;3.00;2.63;;;;;;;27.63;40.31;98340.94;5034696;28;20625;-70
2022/06/16 11:07:38;;;;;;;6.65;2.95;;;;;;;27.24;38.49;98356.66;5034578;28;20281;-70
2022/06/16 11:10:09;;;;;;;3.40;2.83;;;;;;;26.71;39.75;98349.44;5034083;28;20272;-69
2022/06/16 11:12:39;;;;;;;3.83;2.83;;;;;;;27.29;39.55;98357.31;5035021;28;20186;-69
2022/06/16 11:15:23;;;;;;;4.80;2.83;;;;;;;27.25;38.05;98353.63;5017229;28;20233;-70
2022/06/16 11:17:57;;;;;;;5.20;3.10;;;;;;;27.25;39.31;98344.59;5034783;28;20232;-70
2022/06/16 11:20:33;;;;;;;3.33;2.70;;;;;;;27.61;39.09;98362.31;5034677;28;20190;-70
2022/06/16 11:22:59;;;;;;;5.72;3.03;;;;;;;27.41;39.33;98365.69;5034364;28;20641;-70
2022/06/16 11:25:33;;;;;;;6.97;3.10;;;;;;;27.27;40.00;98361.50;5034572;28;20281;-70
2022/06/16 11:28:22;;;;;;;3.60;2.70;;;;;;;27.13;38.55;98367.03;5034927;28;20225;-70
2022/06/16 11:30:48;;;;;;;7.43;3.33;;;;;;;26.97;39.42;98368.63;5034564;28;20197;-69
2022/06/16 11:36:25;;;;;;;4.32;2.83;;;;;;;27.40;37.66;98372.25;5034205;28;20185;-70
2022/06/16 11:39:01;;;;;;;4.40;2.90;;;;;;;27.74;37.80;98377.75;5034298;28;20257;-69
2022/06/16 11:41:30;;;;;;;3.85;3.00;;;;;;;27.78;37.71;98370.50;5017108;28;20276;-70
2022/06/16 11:44:09;;;;;;;4.95;2.90;;;;;;;27.58;38.82;98368.41;5034310;28;20201;-70
2022/06/16 11:46:57;;;;;;;3.72;2.88;;;;;;;27.47;37.83;98374.50;5033928;28;20633;-69
2022/06/16 11:49:38;;;;;;;5.88;3.00;;;;;;;27.65;38.13;98368.75;5016128;28;20324;-70
2022/06/16 11:52:23;;;;;;;5.07;3.03;;;;;;;27.69;38.51;98372.44;5016617;28;20198;-69
2022/06/16 11:55:18;;;;;;;5.15;3.00;;;;;;;27.81;38.21;98366.38;5033848;28;20209;-70
2022/06/16 11:58:10;;;;;;;6.50;2.92;;;;;;;27.77;37.41;98359.91;5033047;28;20192;-70
2022/06/16 12:00:44;;;;;;;4.88;2.92;;;;;;;27.74;38.50;98364.09;5033998;28;20285;-70
2022/06/16 12:03:29;;;;;;;3.20;2.90;;;;;;;27.59;37.55;98361.84;5033900;28;20193;-70
2022/06/16 12:06:21;;;;;;;5.70;2.88;;;;;;;27.63;37.13;98362.78;5033663;28;20193;-70
2022/06/16 12:08:47;;;;;;;4.43;2.72;;;;;;;27.94;36.81;98355.25;5033769;28;20226;-70
2022/06/16 12:11:40;;;;;;;4.57;2.70;;;;;;;27.83;36.94;98350.44;5033553;28;20210;-70
2022/06/16 12:14:26;;;;;;;5.93;2.80;;;;;;;27.62;36.33;98353.00;5030658;28;20225;-70
2022/06/16 12:16:58;;;;;;;4.78;2.90;;;;;;;27.37;36.93;98367.44;5033555;28;20186;-70
2022/06/16 12:19:37;;;;;;;2.60;2.40;;;;;;;27.40;37.35;98344.94;5033497;28;20756;-69